createdAt,value
2018-09-12T05:20:01.473Z,14.37
2018-09-12T05:22:33.827Z,15.00
2018-09-12T05:25:06.193Z,9.13
2018-09-12T05:27:38.543Z,11.50
2018-09-12T05:30:10.873Z,9.00
2018-09-12T05:32:43.196Z,17.43
2018-09-12T05:35:15.613Z,6.83
2018-09-12T05:37:47.936Z,9.27
2018-09-12T05:40:20.281Z,11.20
2018-09-12T05:42:52.608Z,7.60
2018-09-12T05:45:24.950Z,11.00
2018-09-12T05:47:57.300Z,7.57
2018-09-12T05:50:29.717Z,15.37
2018-09-12T05:53:02.094Z,15.57
2018-09-12T05:55:34.519Z,7.33
2018-09-12T05:58:06.849Z,6.60
2018-09-12T06:00:39.205Z,16.43
2018-09-12T06:03:11.574Z,10.40
2018-09-12T06:05:43.925Z,9.43
2018-09-12T06:08:16.257Z,9.37
2018-09-12T06:10:48.641Z,10.93
2018-09-12T06:13:20.957Z,9.13
2018-09-12T06:15:53.320Z,9.23
2018-09-12T06:18:25.656Z,10.68
2018-09-12T06:20:57.997Z,11.05
2018-09-12T06:23:30.335Z,6.67
2018-09-12T06:26:02.677Z,8.10
2018-09-12T06:28:35.012Z,8.98
2018-09-12T06:31:07.597Z,6.20
2018-09-12T06:33:39.932Z,14.85
2018-09-12T06:36:12.271Z,10.75
2018-09-12T06:38:44.655Z,11.08
2018-09-12T06:41:16.996Z,7.80
2018-09-12T06:43:49.335Z,8.35
2018-09-12T06:46:21.677Z,7.22
2018-09-12T06:48:54.003Z,8.63
2018-09-12T06:51:26.352Z,7.65
2018-09-12T06:53:58.688Z,7.60
2018-09-12T06:56:31.033Z,4.50
2018-09-12T06:59:03.369Z,7.92
2018-09-12T07:01:35.764Z,9.83
2018-09-12T07:04:08.084Z,7.75
2018-09-12T07:06:40.414Z,10.80
2018-09-12T07:09:12.796Z,7.60
2018-09-12T07:11:45.153Z,7.30
2018-09-12T07:14:17.594Z,4.90
2018-09-12T07:16:49.804Z,5.42
2018-09-12T07:19:22.120Z,4.40
2018-09-12T07:21:54.443Z,8.35
2018-09-12T07:24:26.834Z,4.85
2018-09-12T07:26:59.093Z,7.37
2018-09-12T07:29:31.420Z,7.78
2018-09-12T07:32:03.801Z,6.67
2018-09-12T07:34:36.173Z,7.87
2018-09-12T07:37:08.485Z,7.25
2018-09-12T07:39:40.809Z,6.50
2018-09-12T07:42:13.146Z,7.22
2018-09-12T07:44:45.469Z,6.60
2018-09-12T07:47:17.814Z,5.53
2018-09-12T07:49:50.121Z,9.28
2018-09-12T07:52:22.437Z,7.40
2018-09-12T07:54:54.756Z,8.10
2018-09-12T07:57:27.189Z,3.85
2018-09-12T07:59:59.544Z,6.80
2018-09-12T08:02:31.860Z,4.40
2018-09-12T08:05:04.467Z,5.00
2018-09-12T08:07:36.767Z,5.75
2018-09-12T08:10:09.087Z,5.65
2018-09-12T08:12:41.444Z,10.48
2018-09-12T08:15:13.759Z,10.82
2018-09-12T08:17:46.077Z,9.20
2018-09-12T08:20:18.653Z,8.53
2018-09-12T08:22:50.995Z,11.50
2018-09-12T08:25:23.340Z,7.80
2018-09-12T08:27:55.661Z,9.10
2018-09-12T08:30:27.994Z,8.23
2018-09-12T08:33:00.323Z,4.75
2018-09-12T08:35:32.645Z,7.30
2018-09-12T08:38:05.402Z,6.83
2018-09-12T08:40:37.720Z,11.97
2018-09-12T08:43:10.032Z,12.00
2018-09-12T08:45:42.336Z,12.65
2018-09-12T08:48:14.693Z,8.58
2018-09-12T08:50:47.007Z,8.68
2018-09-12T08:53:19.344Z,10.53
2018-09-12T08:55:51.656Z,6.65
2018-09-12T08:58:24.080Z,9.93
2018-09-12T09:00:56.393Z,9.65
2018-09-12T09:03:28.737Z,13.18
2018-09-12T09:06:01.067Z,12.78
2018-09-12T09:08:33.441Z,11.50
2018-09-12T09:11:05.795Z,8.83
2018-09-12T09:13:38.129Z,11.43
2018-09-12T09:16:10.473Z,16.30
2018-09-12T09:18:42.856Z,10.25
2018-09-12T09:21:15.186Z,11.25
2018-09-12T09:23:47.657Z,7.20
2018-09-12T09:26:19.968Z,10.80
2018-09-12T09:28:53.012Z,10.80
2018-09-12T09:31:25.344Z,11.30
2018-09-12T09:33:57.721Z,10.15
2018-09-12T09:36:30.024Z,11.43
2018-09-12T09:39:02.375Z,17.87
2018-09-12T09:41:34.708Z,11.85
2018-09-12T09:44:07.080Z,12.00
2018-09-12T09:46:39.444Z,10.20
2018-09-12T09:49:11.776Z,9.43
2018-09-12T09:51:44.104Z,8.50
2018-09-12T09:54:16.441Z,6.85
2018-09-12T09:56:48.780Z,4.10
2018-09-12T09:59:21.204Z,5.50
2018-09-12T10:01:53.526Z,4.83
2018-09-12T10:04:25.921Z,8.78
2018-09-12T10:06:58.728Z,4.75
2018-09-12T10:09:31.077Z,6.80
2018-09-12T10:12:03.400Z,6.08
2018-09-12T10:14:35.724Z,5.17
2018-09-12T10:17:08.148Z,3.58
2018-09-12T10:19:40.598Z,7.15
2018-09-12T10:22:12.932Z,6.05
2018-09-12T10:24:45.265Z,4.33
2018-09-12T10:27:17.597Z,5.12
2018-09-12T10:29:50.022Z,6.00
2018-09-12T10:32:22.394Z,3.55
2018-09-12T10:34:54.866Z,6.25
2018-09-12T10:37:27.238Z,5.20
2018-09-12T10:39:59.685Z,7.50
2018-09-12T10:42:32.085Z,3.55
2018-09-12T10:45:05.189Z,6.65
2018-09-12T10:47:37.524Z,6.80
2018-09-12T10:50:10.132Z,3.98
2018-09-12T10:52:42.465Z,5.97
2018-09-12T10:55:14.813Z,6.47
2018-09-12T10:57:47.180Z,5.75
2018-09-12T11:00:19.520Z,6.10
2018-09-12T11:02:51.871Z,6.78
2018-09-12T11:05:24.213Z,6.60
2018-09-12T11:07:56.549Z,6.10
2018-09-12T11:10:28.892Z,5.20
2018-09-12T11:13:01.580Z,5.83
2018-09-12T11:15:33.973Z,4.85
2018-09-12T11:18:06.357Z,15.18
2018-09-12T11:20:38.684Z,6.70
2018-09-12T11:23:11.056Z,8.25
2018-09-12T11:25:43.500Z,21.68
2018-09-12T11:28:15.840Z,13.40
2018-09-12T11:30:48.274Z,11.25
2018-09-12T11:33:20.608Z,4.87
2018-09-12T11:35:53.065Z,5.53
2018-09-12T11:38:25.570Z,7.05
2018-09-12T11:40:57.925Z,10.65
2018-09-12T11:43:30.277Z,9.90
2018-09-12T11:46:02.708Z,12.82
2018-09-12T11:48:35.182Z,5.72
2018-09-12T11:51:07.555Z,7.20
2018-09-12T11:53:39.900Z,7.42
2018-09-12T11:56:12.240Z,5.35
2018-09-12T11:58:44.592Z,7.22
2018-09-12T12:01:16.929Z,8.08
2018-09-12T12:03:49.298Z,9.43
2018-09-12T12:06:21.632Z,12.60
2018-09-12T12:08:54.163Z,8.38
2018-09-12T12:11:26.512Z,6.05
2018-09-12T12:13:58.899Z,6.55
2018-09-12T12:16:31.286Z,11.05
2018-09-12T12:19:03.660Z,6.17
2018-09-12T12:21:36.000Z,5.28
2018-09-12T12:24:08.336Z,5.40
2018-09-12T12:26:40.671Z,5.45
2018-09-12T12:29:13.033Z,5.28
2018-09-12T12:31:45.392Z,6.60
2018-09-12T12:34:17.724Z,4.00
2018-09-12T12:36:50.058Z,6.80
2018-09-12T12:39:22.413Z,5.55
2018-09-12T12:41:54.864Z,5.33
2018-09-12T12:44:27.208Z,6.33
2018-09-12T12:46:59.551Z,6.47
2018-09-12T12:49:31.908Z,5.87
2018-09-12T12:52:04.229Z,5.47
2018-09-12T12:54:36.581Z,8.60
2018-09-12T12:57:08.909Z,6.62
2018-09-12T12:59:41.256Z,5.55
2018-09-12T13:02:14.180Z,6.65
2018-09-12T13:04:46.563Z,7.53
2018-09-12T13:07:18.905Z,4.78
2018-09-12T13:09:51.245Z,5.30
2018-09-12T13:12:23.580Z,4.95
2018-09-12T13:14:55.921Z,7.67
2018-09-12T13:17:28.249Z,11.65
2018-09-12T13:20:00.605Z,7.42
2018-09-12T13:22:32.943Z,10.38
2018-09-12T13:25:05.611Z,8.20
2018-09-12T13:27:37.949Z,7.95
2018-09-12T13:30:10.261Z,8.28
2018-09-12T13:32:42.579Z,9.85
2018-09-12T13:35:14.929Z,9.03
2018-09-12T13:37:47.389Z,7.12
2018-09-12T13:40:19.839Z,7.35
2018-09-12T13:42:52.178Z,11.65
2018-09-12T13:45:24.513Z,9.88
2018-09-12T13:47:56.935Z,6.83
2018-09-12T13:50:29.276Z,7.00
2018-09-12T13:53:01.618Z,5.65
2018-09-12T13:55:33.961Z,7.10
2018-09-12T13:58:06.333Z,9.00
2018-09-12T14:00:38.681Z,9.80
2018-09-12T14:03:11.047Z,7.67
2018-09-12T14:05:43.367Z,10.40
2018-09-12T14:08:15.684Z,11.60
2018-09-12T14:10:48.024Z,4.67
2018-09-12T14:13:20.337Z,7.65
2018-09-12T14:15:52.664Z,6.05
2018-09-12T14:18:24.975Z,6.33
2018-09-12T14:20:57.288Z,5.62
2018-09-12T14:23:29.696Z,7.30
2018-09-12T14:26:02.021Z,7.87
2018-09-12T14:28:34.344Z,9.08
2018-09-12T14:31:06.668Z,8.18
2018-09-12T14:33:39.004Z,8.48
2018-09-12T14:36:11.392Z,10.35
2018-09-12T14:38:43.708Z,11.73
2018-09-12T14:41:16.028Z,11.53
2018-09-12T14:43:48.393Z,13.00
2018-09-12T14:46:20.720Z,12.00
2018-09-12T14:48:53.040Z,13.90
2018-09-12T14:51:25.373Z,13.33
2018-09-12T14:53:57.692Z,13.17
2018-09-12T14:56:30.031Z,10.67
2018-09-12T14:59:02.371Z,16.97
2018-09-12T15:01:34.692Z,12.63
2018-09-12T15:04:07.264Z,16.83
2018-09-12T15:06:39.600Z,17.27
2018-09-12T15:09:12.028Z,11.83
2018-09-12T15:11:44.356Z,12.30
2018-09-12T15:14:16.675Z,13.97
2018-09-12T15:16:48.987Z,15.70
2018-09-12T15:19:21.627Z,18.63
2018-09-12T15:21:53.952Z,18.23
2018-09-12T15:24:26.264Z,13.57
2018-09-12T15:26:58.596Z,12.73
2018-09-12T15:29:30.917Z,15.30
2018-09-12T15:32:03.245Z,14.20
2018-09-12T15:34:35.577Z,13.77
2018-09-12T15:37:07.937Z,16.27
2018-09-12T15:39:40.227Z,18.87
2018-09-12T15:42:12.554Z,21.93
2018-09-12T15:44:45.120Z,17.93
2018-09-12T15:47:17.498Z,20.20
2018-09-12T15:49:49.797Z,23.93
2018-09-12T15:52:22.340Z,24.53
2018-09-12T15:54:54.949Z,24.93
2018-09-12T15:57:27.363Z,24.07
2018-09-12T15:59:59.802Z,26.03
2018-09-12T16:02:32.138Z,25.43
2018-09-12T16:05:04.858Z,24.30
2018-09-12T16:07:37.187Z,24.80
2018-09-12T16:10:09.520Z,23.53
2018-09-12T16:12:41.909Z,21.87
2018-09-12T16:15:14.260Z,25.60
2018-09-12T16:17:46.569Z,22.47
2018-09-12T16:20:18.892Z,24.30
2018-09-12T16:22:51.240Z,23.60
2018-09-12T16:25:23.572Z,24.80
2018-09-12T16:27:55.914Z,27.53
2018-09-12T16:30:28.256Z,25.60
2018-09-12T16:33:00.624Z,29.03
2018-09-12T16:35:32.920Z,31.87
2018-09-12T16:38:05.253Z,29.60
2018-09-12T16:40:37.609Z,31.90
2018-09-12T16:43:09.926Z,31.87
2018-09-12T16:45:42.267Z,33.13
2018-09-12T16:48:14.603Z,35.27
2018-09-12T16:50:46.978Z,31.83
2018-09-12T16:53:19.300Z,31.70
2018-09-12T16:55:51.737Z,28.07
2018-09-12T16:58:24.109Z,29.50
2018-09-12T17:00:56.452Z,33.60
2018-09-12T17:03:28.788Z,41.03
2018-09-12T17:06:01.108Z,35.70
2018-09-12T17:08:33.492Z,39.17
2018-09-12T17:11:05.808Z,34.37
2018-09-12T17:13:38.140Z,35.93
2018-09-12T17:16:10.467Z,34.50
2018-09-12T17:18:42.800Z,35.17
2018-09-12T17:21:15.123Z,34.87
2018-09-12T17:23:47.462Z,30.13
2018-09-12T17:26:19.890Z,29.93
2018-09-12T17:28:52.229Z,32.13
2018-09-12T17:31:24.551Z,30.33
2018-09-12T17:33:56.877Z,34.77
2018-09-12T17:36:29.192Z,22.23
2018-09-12T17:39:01.548Z,22.73
2018-09-12T17:41:34.275Z,22.63
2018-09-12T17:44:06.627Z,21.50
2018-09-12T17:46:38.993Z,20.13
2018-09-12T17:49:11.316Z,19.70
2018-09-12T17:51:44.292Z,16.73
2018-09-12T17:54:16.679Z,16.13
2018-09-12T17:56:49.000Z,14.30
2018-09-12T17:59:21.437Z,13.27
2018-09-12T18:01:53.748Z,14.43
2018-09-12T18:04:26.137Z,8.83
2018-09-12T18:06:58.500Z,12.50
2018-09-12T18:09:30.844Z,12.47
2018-09-12T18:12:03.469Z,12.30
2018-09-12T18:14:35.812Z,9.50
2018-09-12T18:17:08.191Z,10.13
2018-09-12T18:19:40.528Z,7.93
2018-09-12T18:22:12.942Z,10.20
2018-09-12T18:24:45.350Z,8.07
2018-09-12T18:27:17.651Z,5.37
2018-09-12T18:29:50.193Z,5.63
2018-09-12T18:32:22.508Z,4.80
2018-09-12T18:34:54.900Z,5.97
2018-09-12T18:37:27.236Z,5.60
2018-09-12T18:39:59.651Z,8.70
2018-09-12T18:42:32.011Z,6.23
2018-09-12T18:45:04.560Z,5.90
2018-09-12T18:47:36.901Z,6.73
2018-09-12T18:50:09.256Z,3.07
2018-09-12T18:52:41.641Z,4.67
2018-09-12T18:55:13.981Z,4.70
2018-09-12T18:57:46.393Z,5.13
2018-09-12T19:00:18.713Z,5.90
2018-09-12T19:02:51.087Z,4.57
2018-09-12T19:05:23.388Z,7.20
2018-09-12T19:07:55.754Z,3.50
2018-09-12T19:10:28.087Z,4.43
2018-09-12T19:13:00.480Z,3.40
2018-09-12T19:15:32.790Z,3.40
2018-09-12T19:18:05.147Z,6.07
2018-09-12T19:20:37.428Z,5.23
2018-09-12T19:23:09.751Z,4.90
2018-09-12T19:25:42.109Z,3.83
2018-09-12T19:28:14.435Z,3.40
2018-09-12T19:30:46.772Z,4.50
2018-09-12T19:33:19.087Z,6.03
2018-09-12T19:35:51.428Z,3.30
2018-09-12T19:38:23.739Z,3.73
2018-09-12T19:40:56.061Z,4.43
2018-09-12T19:43:28.395Z,2.50
2018-09-12T19:46:00.728Z,4.83
2018-09-12T19:48:33.039Z,5.07
2018-09-12T19:51:05.356Z,5.77
2018-09-12T19:53:37.675Z,3.10
2018-09-12T19:56:09.985Z,4.57
2018-09-12T19:58:42.305Z,3.80
2018-09-12T20:01:14.628Z,4.53
2018-09-12T20:03:47.013Z,4.33
2018-09-12T20:06:19.336Z,3.77
2018-09-12T20:08:51.662Z,6.00
2018-09-12T20:11:23.984Z,5.13
2018-09-12T20:13:56.317Z,5.40
2018-09-12T20:16:28.640Z,7.93
2018-09-12T20:19:01.045Z,12.60
2018-09-12T20:21:33.363Z,8.20
2018-09-12T20:24:05.752Z,8.50
2018-09-12T20:26:38.071Z,11.27
2018-09-12T20:29:10.404Z,10.53
2018-09-12T20:31:42.724Z,14.23
